Time;durP1;ratioP1;P1;durP2;ratioP2;P2;SDS_P1;SDS_P2;PMS_P1;PMS_P2;Temp;Humidity;BMP_temperature;BMP_pressure;BME280_temperature;BME280_humidity;BME280_pressure;Samples;Min_cycle;Max_cycle;Signal;HPM_P1;HPM_P2
2022/06/28 00:01:55;;;;;;;21.15;9.65;;;13.90;99.90;;;;;;4942000;28;207184;-71
2022/06/28 00:04:21;;;;;;;16.30;9.65;;;13.90;99.90;;;;;;4934296;28;255549;-73
2022/06/28 00:06:48;;;;;;;15.00;9.57;;;13.90;99.90;;;;;;4946654;28;207813;-72
2022/06/28 00:09:15;;;;;;;15.25;8.98;;;13.80;99.90;;;;;;4948625;28;272104;-72
2022/06/28 00:11:42;;;;;;;16.48;9.05;;;13.80;99.90;;;;;;4945078;28;206832;-72
2022/06/28 00:16:55;;;;;;;15.82;9.70;;;13.80;99.90;;;;;;4942332;28;152282;-71
2022/06/28 00:19:22;;;;;;;15.00;9.50;;;13.80;99.90;;;;;;4943295;28;259205;-72
2022/06/28 00:21:48;;;;;;;14.25;9.32;;;13.70;99.90;;;;;;4929284;28;209662;-71
2022/06/28 00:24:14;;;;;;;15.85;9.07;;;13.80;99.90;;;;;;4938250;28;273144;-70
2022/06/28 00:26:41;;;;;;;18.85;10.48;;;13.70;99.90;;;;;;4931311;28;113000;-72
2022/06/28 00:29:08;;;;;;;15.57;9.23;;;13.70;99.90;;;;;;4942961;28;252291;-72
2022/06/28 00:31:34;;;;;;;15.13;9.27;;;13.70;99.90;;;;;;4932505;28;210159;-72
2022/06/28 00:34:03;;;;;;;15.48;9.63;;;13.70;99.90;;;;;;4959345;28;20420;-71
2022/06/28 00:36:29;;;;;;;15.23;9.70;;;13.60;99.90;;;;;;4928046;28;207188;-72
2022/06/28 00:38:55;;;;;;;16.33;9.95;;;13.60;99.90;;;;;;4962713;28;20053;-72
2022/06/28 00:41:21;;;;;;;15.23;9.20;;;13.60;99.90;;;;;;4930334;28;103260;-71
2022/06/28 00:43:48;;;;;;;15.30;9.10;;;13.60;99.90;;;;;;4962479;28;20085;-71
2022/06/28 00:46:14;;;;;;;14.73;9.93;;;13.50;99.90;;;;;;4929224;28;257157;-72
2022/06/28 00:48:40;;;;;;;14.95;10.18;;;13.50;99.90;;;;;;4982672;28;20050;-72
2022/06/28 00:51:08;;;;;;;15.80;9.40;;;13.50;99.90;;;;;;4911231;28;251118;-72
2022/06/28 00:53:35;;;;;;;12.63;9.45;;;13.50;99.90;;;;;;4970948;28;20154;-72
2022/06/28 00:56:01;;;;;;;15.40;9.98;;;13.40;99.90;;;;;;4906865;28;258127;-72
2022/06/28 00:58:27;;;;;;;18.55;10.52;;;13.40;99.90;;;;;;4950092;28;20055;-71
2022/06/28 01:00:54;;;;;;;16.73;10.10;;;13.40;99.90;;;;;;4930376;28;205688;-72
2022/06/28 01:03:22;;;;;;;14.48;9.93;;;13.40;99.90;;;;;;4972816;28;20676;-72
2022/06/28 01:05:50;;;;;;;14.52;10.13;;;13.30;99.90;;;;;;4907277;28;263945;-71
2022/06/28 01:08:16;;;;;;;15.25;10.20;;;13.30;99.90;;;;;;4981057;28;20059;-72
2022/06/28 01:10:46;;;;;;;15.52;10.15;;;13.30;99.90;;;;;;4915278;28;176513;-72
2022/06/28 01:13:13;;;;;;;15.27;10.43;;;13.20;99.90;;;;;;4972338;28;20074;-71
2022/06/28 01:15:41;;;;;;;15.93;10.43;;;13.20;99.90;;;;;;4929347;28;205193;-72
2022/06/28 01:18:10;;;;;;;16.17;10.95;;;13.20;99.90;;;;;;4975692;28;20053;-72
2022/06/28 01:20:36;;;;;;;15.32;9.90;;;13.20;99.90;;;;;;4913338;28;273326;-71
2022/06/28 01:23:02;;;;;;;16.58;9.80;;;13.20;99.90;;;;;;4976985;28;20065;-72
2022/06/28 01:25:29;;;;;;;16.33;10.13;;;13.10;99.90;;;;;;4915664;28;261362;-71
2022/06/28 01:27:55;;;;;;;16.08;10.60;;;13.10;99.90;;;;;;4994194;28;20062;-72
2022/06/28 01:30:22;;;;;;;14.85;9.45;;;13.10;99.90;;;;;;4918091;28;259781;-71
2022/06/28 01:32:49;;;;;;;16.92;10.05;;;13.10;99.90;;;;;;4964990;28;20050;-71
2022/06/28 01:35:15;;;;;;;14.18;9.75;;;13.00;99.90;;;;;;4938528;28;145590;-72
2022/06/28 01:37:41;;;;;;;19.08;10.10;;;13.00;99.90;;;;;;4936185;28;206120;-71
2022/06/28 01:40:08;;;;;;;15.82;9.55;;;13.00;99.90;;;;;;4974274;28;206896;-71
2022/06/28 01:42:35;;;;;;;16.75;9.85;;;13.00;99.90;;;;;;4924919;28;206323;-71
2022/06/28 01:45:01;;;;;;;16.58;9.98;;;13.00;99.90;;;;;;4946235;28;268697;-71
2022/06/28 01:47:29;;;;;;;14.32;9.48;;;13.00;99.90;;;;;;4936599;28;205564;-72
2022/06/28 01:49:55;;;;;;;15.15;9.23;;;13.00;99.90;;;;;;4954149;28;226494;-72
2022/06/28 01:52:22;;;;;;;15.20;9.73;;;13.00;99.90;;;;;;4935524;28;211712;-71
2022/06/28 01:54:48;;;;;;;14.75;9.52;;;13.00;99.90;;;;;;4966291;28;89295;-72
2022/06/28 01:57:15;;;;;;;14.23;10.07;;;13.00;99.90;;;;;;4959509;28;209432;-72
2022/06/28 01:59:43;;;;;;;13.25;9.32;;;12.90;99.90;;;;;;4954395;28;41273;-71
2022/06/28 02:02:09;;;;;;;17.35;10.10;;;12.90;99.90;;;;;;4941202;28;209328;-71
2022/06/28 02:04:35;;;;;;;19.70;11.02;;;13.00;99.90;;;;;;4932706;28;275021;-72
2022/06/28 02:07:01;;;;;;;15.63;9.95;;;12.90;99.90;;;;;;4956750;28;165110;-72
2022/06/28 02:09:27;;;;;;;15.93;9.93;;;12.90;99.90;;;;;;4948004;28;271749;-72
2022/06/28 02:11:55;;;;;;;20.15;10.98;;;12.90;99.90;;;;;;4935098;28;206644;-71
2022/06/28 02:14:21;;;;;;;16.27;10.37;;;12.90;99.90;;;;;;4949243;28;261862;-71
2022/06/28 02:16:48;;;;;;;16.85;11.32;;;12.90;99.90;;;;;;4930698;28;206376;-71
2022/06/28 02:19:14;;;;;;;15.63;11.10;;;12.90;99.90;;;;;;4948656;28;274450;-72
2022/06/28 02:21:42;;;;;;;16.73;10.70;;;12.90;99.90;;;;;;4925281;28;245002;-71
2022/06/28 02:24:10;;;;;;;17.67;11.07;;;12.80;99.90;;;;;;4940623;28;265589;-72
2022/06/28 02:26:37;;;;;;;20.10;12.13;;;12.90;99.90;;;;;;4931441;28;208437;-71
2022/06/28 02:29:04;;;;;;;16.85;10.80;;;12.90;99.90;;;;;;4951797;28;20054;-70
2022/06/28 02:31:30;;;;;;;17.23;10.73;;;12.80;99.90;;;;;;4916953;28;214824;-71
2022/06/28 02:33:57;;;;;;;18.63;12.05;;;12.80;99.90;;;;;;4971104;28;20051;-71
2022/06/28 02:41:50;;;;;;;14.88;10.63;;;12.70;99.90;;;;;;4938705;28;204577;-72
2022/06/28 02:44:17;;;;;;;16.25;10.82;;;12.70;99.90;;;;;;4950187;28;261011;-72
2022/06/28 02:46:45;;;;;;;18.88;10.88;;;12.70;99.90;;;;;;4939910;28;206111;-70
2022/06/28 02:49:13;;;;;;;17.00;10.75;;;12.70;99.90;;;;;;4948208;28;270052;-70
2022/06/28 02:51:39;;;;;;;18.55;11.18;;;12.70;99.90;;;;;;4912451;28;208139;-70
2022/06/28 02:54:05;;;;;;;15.25;10.02;;;12.60;99.90;;;;;;4950973;28;261059;-71
2022/06/28 02:56:32;;;;;;;15.70;10.13;;;12.60;99.90;;;;;;4941892;28;144847;-71
2022/06/28 02:58:58;;;;;;;16.65;10.38;;;12.60;99.90;;;;;;4969872;28;20062;-71
2022/06/28 03:01:24;;;;;;;16.60;10.63;;;12.60;99.90;;;;;;4917472;28;271650;-71
2022/06/28 03:03:50;;;;;;;14.93;9.68;;;12.60;99.90;;;;;;4964063;28;21349;-71
2022/06/28 03:06:16;;;;;;;17.85;10.30;;;12.60;99.90;;;;;;4904210;28;206721;-71
2022/06/28 03:08:42;;;;;;;17.63;10.20;;;12.50;99.90;;;;;;4972624;28;20047;-71
2022/06/28 03:11:08;;;;;;;15.25;10.02;;;12.50;99.90;;;;;;4911347;28;249674;-71
2022/06/28 03:13:34;;;;;;;18.08;10.70;;;12.50;99.90;;;;;;4942466;28;20055;-71
2022/06/28 03:16:00;;;;;;;14.82;9.80;;;12.50;99.90;;;;;;4921479;28;239477;-71
2022/06/28 03:18:27;;;;;;;16.77;10.30;;;12.50;99.90;;;;;;4971037;28;20520;-71
2022/06/28 03:20:53;;;;;;;17.23;9.93;;;12.50;99.90;;;;;;4913287;28;274001;-71
2022/06/28 03:23:19;;;;;;;17.20;9.93;;;12.40;99.90;;;;;;4975857;28;20521;-71
2022/06/28 03:25:45;;;;;;;17.27;10.25;;;12.40;99.90;;;;;;4910807;28;271036;-72
2022/06/28 03:28:11;;;;;;;16.33;10.30;;;12.40;99.90;;;;;;4957992;28;20058;-71
2022/06/28 03:30:37;;;;;;;15.35;10.32;;;12.40;99.90;;;;;;4901123;28;261638;-71
2022/06/28 03:33:03;;;;;;;16.08;10.68;;;12.40;99.90;;;;;;4957290;28;20069;-71
2022/06/28 03:35:30;;;;;;;18.27;10.35;;;12.40;99.90;;;;;;4917861;28;267683;-71
2022/06/28 03:37:56;;;;;;;17.92;10.00;;;12.40;99.90;;;;;;4976194;28;20075;-71
2022/06/28 03:40:22;;;;;;;17.48;10.70;;;12.40;99.90;;;;;;4915372;28;247303;-72
2022/06/28 03:42:48;;;;;;;16.40;10.20;;;12.40;99.90;;;;;;4984429;28;20047;-72
2022/06/28 03:45:14;;;;;;;17.80;10.70;;;12.40;99.90;;;;;;4940372;28;255641;-72
2022/06/28 03:47:40;;;;;;;19.25;10.55;;;12.40;99.90;;;;;;4952698;28;161490;-73
2022/06/28 03:50:07;;;;;;;20.25;11.60;;;12.40;99.90;;;;;;4947370;28;268380;-71
2022/06/28 03:52:33;;;;;;;17.67;11.13;;;12.50;99.90;;;;;;4931031;28;206021;-71
2022/06/28 03:54:59;;;;;;;17.50;10.90;;;12.50;99.90;;;;;;4951483;28;251895;-71
2022/06/28 03:57:26;;;;;;;19.20;10.82;;;12.50;99.90;;;;;;4932741;28;209366;-72
2022/06/28 03:59:56;;;;;;;17.42;10.05;;;12.50;99.90;;;;;;4947446;28;183968;-71
2022/06/28 04:02:22;;;;;;;16.80;10.38;;;12.50;99.90;;;;;;4944925;28;135037;-71
2022/06/28 04:04:48;;;;;;;15.93;10.73;;;12.50;99.90;;;;;;4941925;28;63614;-72
2022/06/28 04:07:14;;;;;;;18.63;11.05;;;12.60;99.90;;;;;;4934128;28;219353;-72
2022/06/28 04:09:40;;;;;;;16.05;10.85;;;12.60;99.90;;;;;;4949671;28;255131;-71
2022/06/28 04:12:07;;;;;;;18.38;9.88;;;12.60;99.90;;;;;;4912491;28;210315;-71
2022/06/28 04:14:33;;;;;;;14.90;9.93;;;12.70;99.90;;;;;;4949047;28;270080;-72
2022/06/28 04:16:59;;;;;;;15.85;10.52;;;12.70;99.90;;;;;;4947320;28;206342;-71
2022/06/28 04:19:25;;;;;;;17.10;10.02;;;12.70;99.90;;;;;;4950405;28;259925;-71
2022/06/28 04:21:52;;;;;;;19.48;10.88;;;12.70;99.90;;;;;;4920267;28;206673;-71
2022/06/28 04:24:18;;;;;;;17.97;10.87;;;12.80;99.90;;;;;;4949596;28;262912;-71
2022/06/28 04:26:44;;;;;;;19.85;10.75;;;12.80;99.90;;;;;;4937310;28;199640;-71
2022/06/28 04:29:10;;;;;;;16.77;9.98;;;12.80;99.90;;;;;;4948331;28;269982;-71
2022/06/28 04:31:37;;;;;;;18.45;10.13;;;12.90;99.90;;;;;;4921387;28;211006;-71
2022/06/28 04:34:03;;;;;;;17.00;10.10;;;13.00;99.90;;;;;;4958603;28;20058;-71
2022/06/28 04:36:29;;;;;;;19.80;10.32;;;13.00;99.90;;;;;;4918496;28;250664;-71
2022/06/28 04:38:56;;;;;;;15.93;9.65;;;13.00;99.90;;;;;;4967011;28;20062;-71
2022/06/28 04:41:24;;;;;;;17.85;9.70;;;13.10;99.90;;;;;;4926705;28;267258;-71
2022/06/28 04:43:53;;;;;;;20.13;10.10;;;13.10;99.90;;;;;;4975147;28;20051;-71
2022/06/28 04:46:22;;;;;;;16.20;9.25;;;13.20;99.90;;;;;;4929103;28;223117;-73
2022/06/28 04:48:48;;;;;;;17.38;9.57;;;13.20;99.90;;;;;;4962908;28;20051;-71
2022/06/28 04:51:15;;;;;;;17.02;8.98;;;13.30;99.90;;;;;;4918116;28;167024;-71
2022/06/28 04:53:43;;;;;;;18.98;9.32;;;13.30;99.90;;;;;;4966690;28;20047;-71
2022/06/28 04:56:11;;;;;;;17.83;9.60;;;13.40;99.90;;;;;;4911192;28;265479;-71
2022/06/28 04:58:37;;;;;;;17.90;8.75;;;13.40;99.90;;;;;;4963425;28;20058;-71
2022/06/28 05:01:03;;;;;;;14.77;8.45;;;13.50;99.90;;;;;;4896986;28;206549;-71
2022/06/28 05:03:31;;;;;;;15.38;8.30;;;13.60;99.90;;;;;;4979749;28;20106;-72
2022/06/28 05:05:57;;;;;;;19.98;9.25;;;13.60;99.90;;;;;;4897246;28;262597;-71
2022/06/28 05:08:24;;;;;;;14.30;8.38;;;13.70;99.90;;;;;;4962966;28;20558;-71
2022/06/28 05:10:50;;;;;;;15.05;7.80;;;13.70;99.90;;;;;;4933482;28;206882;-72
2022/06/28 05:13:16;;;;;;;17.17;7.95;;;13.80;99.90;;;;;;4958163;28;20054;-71
2022/06/28 05:15:43;;;;;;;15.25;8.20;;;13.90;99.90;;;;;;4919518;28;183423;-72
2022/06/28 05:18:09;;;;;;;15.80;7.90;;;13.90;99.90;;;;;;4961486;28;20428;-71
2022/06/28 05:20:35;;;;;;;16.38;7.75;;;14.00;99.90;;;;;;4924879;28;209792;-71
2022/06/28 05:23:01;;;;;;;17.67;7.93;;;14.10;99.90;;;;;;4945912;28;20059;-71
2022/06/28 05:25:27;;;;;;;17.52;7.70;;;14.20;99.90;;;;;;4906592;28;263212;-70
2022/06/28 05:27:53;;;;;;;16.67;7.85;;;14.20;99.90;;;;;;4954893;28;20054;-72
2022/06/28 05:30:19;;;;;;;14.70;7.00;;;14.30;99.90;;;;;;4925947;28;206174;-72
2022/06/28 05:32:45;;;;;;;17.17;7.18;;;14.40;99.90;;;;;;4972944;28;20138;-72
2022/06/28 05:35:12;;;;;;;15.35;7.25;;;14.50;99.90;;;;;;4941897;28;265567;-70
2022/06/28 05:37:38;;;;;;;16.23;7.30;;;14.60;99.90;;;;;;4921066;28;250582;-70
2022/06/28 05:40:06;;;;;;;11.80;6.40;;;14.60;99.90;;;;;;4951779;28;55841;-70
2022/06/28 05:42:32;;;;;;;13.82;6.43;;;14.70;99.90;;;;;;4939064;28;217684;-71
2022/06/28 05:44:58;;;;;;;12.43;5.88;;;14.70;99.90;;;;;;4958474;28;94102;-71
2022/06/28 05:47:24;;;;;;;14.50;6.30;;;14.70;99.90;;;;;;4928637;28;212445;-71
2022/06/28 05:49:50;;;;;;;13.75;5.85;;;14.70;99.90;;;;;;4942991;28;266445;-71
2022/06/28 05:52:16;;;;;;;13.32;5.68;;;14.60;99.90;;;;;;4928548;28;209589;-71
2022/06/28 05:54:42;;;;;;;13.90;5.85;;;14.60;99.90;;;;;;4942434;28;271719;-71
2022/06/28 05:57:08;;;;;;;14.57;5.53;;;14.70;99.90;;;;;;4926489;28;216222;-72
2022/06/28 05:59:35;;;;;;;17.23;5.60;;;14.90;99.90;;;;;;4945009;28;132797;-72
2022/06/28 06:02:01;;;;;;;11.13;4.57;;;15.10;99.90;;;;;;4942443;28;210914;-72
2022/06/28 06:04:27;;;;;;;15.82;4.72;;;15.30;99.90;;;;;;4931752;28;271960;-72
2022/06/28 06:06:54;;;;;;;12.25;4.70;;;15.50;99.90;;;;;;4952655;28;134972;-72
2022/06/28 06:09:20;;;;;;;12.90;4.20;;;15.70;99.90;;;;;;4946901;28;272025;-72
2022/06/28 06:11:47;;;;;;;14.18;4.60;;;15.90;99.90;;;;;;4943743;28;209902;-71
2022/06/28 06:14:16;;;;;;;12.70;4.38;;;16.10;99.90;;;;;;4940165;28;265198;-70
2022/06/28 06:16:43;;;;;;;12.82;4.07;;;16.20;99.90;;;;;;4943361;28;208873;-71
2022/06/28 06:19:09;;;;;;;16.23;4.43;;;16.20;99.90;;;;;;4957481;28;274907;-71
2022/06/28 06:21:35;;;;;;;11.07;3.75;;;16.30;99.90;;;;;;4941565;28;209961;-70
2022/06/28 06:24:01;;;;;;;12.70;4.10;;;16.40;99.90;;;;;;4976887;28;20047;-71
2022/06/28 06:26:28;;;;;;;14.95;3.70;;;16.70;99.90;;;;;;4938437;28;207031;-71
2022/06/28 06:28:54;;;;;;;17.67;4.13;;;16.90;99.90;;;;;;4970208;28;20059;-71
2022/06/28 06:31:20;;;;;;;10.73;3.53;;;17.10;99.90;;;;;;4932270;28;230882;-71
2022/06/28 06:33:48;;;;;;;14.80;3.70;;;17.20;99.90;;;;;;4955586;28;20055;-71
2022/06/28 06:36:14;;;;;;;14.23;3.72;;;17.40;99.90;;;;;;4899093;28;245087;-71
2022/06/28 06:38:40;;;;;;;13.60;3.17;;;17.40;99.90;;;;;;4974200;28;20528;-71
2022/06/28 06:41:06;;;;;;;11.20;3.30;;;17.50;99.90;;;;;;4920299;28;209510;-71
2022/06/28 06:43:32;;;;;;;11.32;3.30;;;17.40;99.90;;;;;;4976570;28;20047;-71
2022/06/28 06:45:58;;;;;;;12.45;3.47;;;17.60;99.90;;;;;;4922144;28;207517;-71
2022/06/28 06:48:24;;;;;;;14.88;3.30;;;17.80;99.90;;;;;;4962833;28;20057;-71
2022/06/28 06:50:51;;;;;;;16.27;3.30;;;18.00;99.90;;;;;;4906827;28;270345;-71
2022/06/28 06:53:19;;;;;;;11.43;2.80;;;18.10;99.90;;;;;;4947533;28;20058;-70
2022/06/28 06:55:48;;;;;;;11.48;2.60;;;18.30;99.90;;;;;;4912939;28;276587;-70
2022/06/28 06:58:15;;;;;;;14.68;3.08;;;18.40;99.90;;;;;;4981602;28;20043;-70
2022/06/28 07:00:41;;;;;;;12.68;3.20;;;18.50;99.90;;;;;;4916899;28;259614;-70
2022/06/28 07:03:07;;;;;;;11.50;2.90;;;18.50;99.90;;;;;;4978913;28;20055;-69
2022/06/28 07:05:34;;;;;;;14.90;3.43;;;18.60;99.90;;;;;;4901718;28;262568;-69
2022/06/28 07:08:00;;;;;;;12.13;3.05;;;18.90;99.90;;;;;;4969278;28;20053;-70
2022/06/28 07:10:26;;;;;;;12.73;2.70;;;19.10;99.90;;;;;;4925652;28;206322;-70
2022/06/28 07:12:52;;;;;;;14.02;2.67;;;19.30;99.90;;;;;;4977001;28;20050;-71
2022/06/28 07:15:19;;;;;;;14.75;3.03;;;19.50;99.90;;;;;;4911569;28;253913;-69
2022/06/28 07:17:45;;;;;;;11.95;2.80;;;19.70;99.90;;;;;;4960486;28;20424;-70
2022/06/28 07:20:12;;;;;;;17.27;3.08;;;20.10;99.90;;;;;;4949806;28;263833;-71
2022/06/28 07:22:38;;;;;;;15.38;3.00;;;20.10;99.90;;;;;;4944647;28;272236;-69
2022/06/28 07:25:05;;;;;;;13.73;2.75;;;20.10;99.90;;;;;;4950040;28;262877;-70
2022/06/28 07:27:31;;;;;;;11.52;2.40;;;20.20;99.90;;;;;;4948244;28;207182;-70
2022/06/28 07:29:57;;;;;;;14.32;3.00;;;20.40;99.90;;;;;;4949569;28;257480;-72
2022/06/28 07:32:23;;;;;;;11.45;2.72;;;20.70;99.90;;;;;;4927586;28;206387;-71
2022/06/28 07:34:49;;;;;;;14.18;2.83;;;21.00;99.90;;;;;;4946331;28;271770;-71
2022/06/28 07:37:15;;;;;;;13.50;2.58;;;21.40;99.90;;;;;;4945067;28;207794;-70
2022/06/28 07:39:43;;;;;;;12.85;2.60;;;21.50;99.90;;;;;;4950897;28;110723;-70
2022/06/28 07:42:09;;;;;;;11.45;2.40;;;21.60;99.90;;;;;;4950225;28;198134;-70
2022/06/28 07:44:35;;;;;;;13.38;2.50;;;21.30;99.90;;;;;;4947519;28;256396;-69
2022/06/28 07:47:01;;;;;;;11.90;2.60;;;21.40;99.90;;;;;;4924439;28;149831;-70
2022/06/28 07:52:33;;;;;;;11.82;2.22;;;21.30;99.90;;;;;;4941129;28;270250;-71
2022/06/28 07:54:58;;;;;;;12.13;2.25;;;21.10;99.90;;;;;;4948622;28;259878;-70
2022/06/28 07:57:24;;;;;;;14.13;2.35;;;21.00;99.90;;;;;;4931039;28;205466;-70
2022/06/28 07:59:51;;;;;;;14.38;2.47;;;21.10;99.90;;;;;;4972043;28;57889;-70
2022/06/28 08:02:17;;;;;;;10.15;2.17;;;21.20;99.90;;;;;;4914644;28;205384;-71
2022/06/28 08:04:43;;;;;;;13.80;2.47;;;21.10;99.90;;;;;;4954868;28;197326;-70
2022/06/28 08:07:09;;;;;;;15.23;2.53;;;20.90;99.90;;;;;;4924111;28;226222;-71
2022/06/28 08:09:35;;;;;;;13.13;2.50;;;20.50;99.90;;;;;;4938783;28;275823;-70
2022/06/28 08:12:02;;;;;;;11.90;2.20;;;20.20;99.90;;;;;;4930447;28;161499;-69
2022/06/28 08:14:29;;;;;;;12.77;2.47;;;20.00;99.90;;;;;;4937904;28;271813;-71
2022/06/28 08:16:56;;;;;;;15.73;2.50;;;20.00;99.90;;;;;;4930144;28;206593;-71
2022/06/28 08:19:22;;;;;;;15.00;2.10;;;20.40;99.90;;;;;;4976188;28;256942;-71
2022/06/28 08:21:49;;;;;;;11.18;1.95;;;21.00;99.90;;;;;;4923705;28;207281;-70
2022/06/28 08:24:16;;;;;;;11.15;1.92;;;21.50;99.90;;;;;;4944568;28;250378;-72
2022/06/28 08:26:43;;;;;;;11.60;1.92;;;22.10;99.90;;;;;;4934471;28;206568;-71
2022/06/28 08:29:13;;;;;;;12.57;2.00;;;22.50;99.90;;;;;;4945882;28;262409;-71
2022/06/28 08:31:39;;;;;;;9.98;1.90;;;23.20;99.90;;;;;;4940338;28;205618;-71
2022/06/28 08:34:06;;;;;;;12.30;2.17;;;23.50;99.90;;;;;;4960412;28;264960;-71
2022/06/28 08:36:33;;;;;;;10.88;1.92;;;23.20;99.90;;;;;;4944350;28;209229;-71
2022/06/28 08:38:59;;;;;;;7.82;1.63;;;22.80;99.90;;;;;;4976111;28;20050;-70
2022/06/28 08:41:30;;;;;;;11.25;1.75;;;22.40;99.90;;;;;;4923986;28;255340;-71
2022/06/28 08:43:56;;;;;;;11.02;1.90;;;22.30;98.00;;;;;;4969129;28;20515;-71
2022/06/28 08:46:24;;;;;;;10.15;1.60;;;22.30;99.90;;;;;;4918872;28;264715;-71
2022/06/28 08:48:53;;;;;;;10.57;2.00;;;22.60;99.90;;;;;;4969307;28;20086;-71
2022/06/28 08:51:20;;;;;;;11.77;2.03;;;22.90;99.90;;;;;;4927320;28;269065;-71
2022/06/28 08:53:48;;;;;;;11.30;1.50;;;23.10;98.20;;;;;;4974588;28;20054;-71
2022/06/28 08:56:15;;;;;;;12.32;2.00;;;23.50;99.40;;;;;;4913534;28;264748;-71
2022/06/28 08:58:43;;;;;;;11.00;2.10;;;23.40;99.10;;;;;;4956565;28;20143;-71
2022/06/28 09:01:11;;;;;;;8.68;1.80;;;23.70;99.90;;;;;;4920860;28;276972;-71
2022/06/28 09:03:38;;;;;;;10.07;2.00;;;24.10;91.90;;;;;;4979277;28;20058;-71
2022/06/28 09:06:04;;;;;;;8.57;1.83;;;24.00;98.80;;;;;;4899471;28;227841;-71
2022/06/28 09:08:30;;;;;;;8.77;1.50;;;24.10;96.30;;;;;;4954154;28;20053;-70
2022/06/28 09:10:57;;;;;;;8.18;1.80;;;24.50;98.20;;;;;;4910194;28;257892;-70
2022/06/28 09:13:23;;;;;;;10.05;2.05;;;24.70;99.00;;;;;;4952354;28;20062;-71
2022/06/28 09:15:57;;;;;;;8.95;2.00;;;24.50;97.30;;;;;;4908771;28;262581;-70
2022/06/28 09:18:46;;;;;;;11.38;1.90;;;24.10;93.20;;;;;;4966023;28;20059;-71
2022/06/28 09:21:16;;;;;;;9.93;1.90;;;23.40;92.20;;;;;;4917724;28;266280;-71
2022/06/28 09:23:45;;;;;;;10.57;1.80;;;23.10;95.80;;;;;;4958814;28;20061;-71
2022/06/28 09:26:16;;;;;;;11.43;1.63;;;23.10;91.30;;;;;;4916452;28;269389;-71
2022/06/28 09:28:46;;;;;;;11.13;1.67;;;23.30;89.30;;;;;;4965469;28;20493;-71
2022/06/28 09:31:23;;;;;;;9.85;1.77;;;23.30;88.10;;;;;;4904528;28;250819;-71
2022/06/28 09:34:04;;;;;;;9.48;1.83;;;23.70;92.40;;;;;;4960068;28;20054;-71
2022/06/28 09:36:39;;;;;;;7.85;1.80;;;24.10;88.90;;;;;;4929360;28;259199;-72
2022/06/28 09:39:18;;;;;;;9.93;1.70;;;24.40;94.30;;;;;;4964372;28;20066;-71
2022/06/28 09:41:46;;;;;;;10.87;1.77;;;24.70;91.30;;;;;;4937420;28;207030;-71
2022/06/28 09:44:15;;;;;;;8.38;1.70;;;24.50;93.40;;;;;;4965993;28;273654;-71
2022/06/28 09:46:41;;;;;;;8.55;1.90;;;24.70;90.00;;;;;;4945466;28;209985;-72
2022/06/28 09:49:09;;;;;;;11.18;1.92;;;24.90;88.20;;;;;;4945130;28;250362;-72
2022/06/28 09:51:36;;;;;;;11.55;2.00;;;24.70;85.00;;;;;;4945294;28;205719;-72
2022/06/28 09:54:05;;;;;;;9.90;1.75;;;24.30;84.80;;;;;;4974209;28;20043;-72
2022/06/28 09:56:43;;;;;;;8.18;1.75;;;24.00;83.90;;;;;;4923297;28;207259;-71
2022/06/28 09:59:10;;;;;;;11.73;2.17;;;24.00;82.70;;;;;;4949407;28;253899;-71
2022/06/28 10:01:36;;;;;;;7.95;1.60;;;24.30;83.20;;;;;;4939674;28;206643;-72
2022/06/28 10:04:03;;;;;;;10.35;1.80;;;24.50;86.90;;;;;;4970464;28;20062;-72
2022/06/28 10:06:30;;;;;;;9.38;1.73;;;24.70;83.70;;;;;;4918755;28;256451;-71
2022/06/28 10:08:58;;;;;;;9.82;1.70;;;25.10;81.10;;;;;;4969817;28;20058;-71
2022/06/28 10:11:24;;;;;;;8.52;1.40;;;25.40;83.70;;;;;;4921591;28;206770;-72
2022/06/28 10:16:57;;;;;;;9.23;1.70;;;24.80;74.80;;;;;;4915356;28;210131;-71
2022/06/28 10:19:26;;;;;;;8.93;1.70;;;24.70;67.00;;;;;;4948511;28;267009;-71
2022/06/28 10:21:52;;;;;;;8.65;1.58;;;24.90;75.10;;;;;;4946473;28;207201;-71
2022/06/28 10:24:19;;;;;;;8.03;1.60;;;25.40;72.10;;;;;;4958256;28;251849;-71
2022/06/28 10:27:12;;;;;;;8.35;1.52;;;25.20;67.40;;;;;;4944287;28;210216;-71
2022/06/28 10:30:09;;;;;;;9.82;1.70;;;25.00;71.00;;;;;;4949113;28;248942;-72
2022/06/28 10:32:39;;;;;;;9.25;1.48;;;24.60;63.50;;;;;;4933815;28;205587;-71
2022/06/28 10:35:05;;;;;;;9.25;1.48;;;24.60;70.60;;;;;;4947804;28;259326;-71
2022/06/28 10:37:32;;;;;;;10.05;1.60;;;25.10;70.30;;;;;;4917070;28;207012;-72
2022/06/28 10:40:26;;;;;;;9.10;1.33;;;25.10;68.50;;;;;;4968014;28;254170;-72
2022/06/28 10:42:53;;;;;;;9.07;1.58;;;25.10;62.80;;;;;;4920583;28;103569;-72
2022/06/28 10:45:23;;;;;;;10.43;1.60;;;25.10;66.20;;;;;;4900614;28;254556;-71
2022/06/28 10:48:09;;;;;;;10.27;1.70;;;24.70;64.90;;;;;;4989951;28;20472;-71
2022/06/28 10:50:55;;;;;;;7.72;1.70;;;24.50;64.90;;;;;;4909974;28;208284;-70
2022/06/28 10:53:21;;;;;;;9.25;1.70;;;24.30;66.30;;;;;;4960225;28;20117;-71
2022/06/28 10:56:20;;;;;;;8.80;1.70;;;24.40;67.50;;;;;;4936366;28;206063;-72
2022/06/28 10:59:07;;;;;;;8.35;1.50;;;24.80;59.60;;;;;;4903075;29;20067;-73
2022/06/28 11:01:42;;;;;;;9.00;1.65;;;24.90;64.80;;;;;;4861941;29;207890;-71
2022/06/28 11:04:10;;;;;;;10.75;1.60;;;25.10;64.70;;;;;;4892701;29;106308;-69
2022/06/28 11:07:04;;;;;;;7.93;1.40;;;25.10;61.80;;;;;;4857772;29;207483;-72
2022/06/28 11:09:39;;;;;;;11.40;1.60;;;25.60;65.10;;;;;;4883081;29;144833;-70
2022/06/28 11:12:18;;;;;;;9.10;1.40;;;26.10;62.90;;;;;;4854567;29;220004;-71
2022/06/28 11:14:53;;;;;;;7.65;1.45;;;26.10;59.70;;;;;;4893978;29;127638;-70
2022/06/28 11:17:42;;;;;;;7.90;1.48;;;26.00;58.30;;;;;;4854120;29;209388;-71
2022/06/28 11:20:21;;;;;;;8.68;1.67;;;26.30;53.40;;;;;;4887854;29;187792;-71
2022/06/28 11:22:50;;;;;;;8.32;1.40;;;26.10;57.60;;;;;;4859649;29;206469;-71
2022/06/28 11:25:21;;;;;;;8.75;1.73;;;26.60;60.10;;;;;;4868245;29;211637;-72
2022/06/28 11:27:52;;;;;;;7.95;1.45;;;27.40;55.90;;;;;;4881917;29;207147;-71
2022/06/28 11:30:18;;;;;;;;;;;27.50;56.20;;;;;;4847741;29;215435;-71
2022/06/28 11:32:48;;;;;;;8.55;1.38;;;27.60;50.80;;;;;;4847349;29;208105;-72
2022/06/28 11:35:27;;;;;;;6.70;1.20;;;28.10;57.40;;;;;;4947037;28;141482;-71
2022/06/28 11:37:55;;;;;;;9.15;1.73;;;28.60;52.10;;;;;;4953231;28;142023;-71
2022/06/28 11:40:26;;;;;;;8.30;1.58;;;28.00;53.20;;;;;;4915354;28;211091;-71
2022/06/28 11:43:08;;;;;;;8.13;1.55;;;27.80;54.20;;;;;;4968211;28;20543;-71
2022/06/28 11:45:37;;;;;;;8.48;1.40;;;28.10;52.80;;;;;;4909683;28;268046;-71
2022/06/28 11:48:08;;;;;;;8.88;1.40;;;28.40;51.50;;;;;;4972575;28;20050;-71
2022/06/28 11:50:46;;;;;;;10.90;1.63;;;28.70;50.50;;;;;;4914998;28;259543;-71
2022/06/28 11:53:14;;;;;;;8.52;1.42;;;28.70;47.90;;;;;;4954489;28;20070;-72
2022/06/28 11:55:40;;;;;;;7.95;1.42;;;27.80;49.50;;;;;;4894406;28;229355;-72
2022/06/28 11:58:17;;;;;;;8.52;1.58;;;27.70;50.30;;;;;;4958768;28;20063;-72
2022/06/28 12:01:08;;;;;;;8.50;1.40;;;27.40;48.60;;;;;;4915444;28;270629;-70
2022/06/28 12:03:43;;;;;;;7.68;1.23;;;26.80;49.50;;;;;;4985000;28;20034;-71
2022/06/28 12:06:22;;;;;;;5.55;1.05;;;26.40;50.20;;;;;;4897780;28;268086;-71
2022/06/28 12:08:52;;;;;;;9.27;1.55;;;25.90;50.30;;;;;;4977551;28;20127;-72
2022/06/28 12:11:27;;;;;;;9.15;1.48;;;26.30;50.80;;;;;;4927064;28;256115;-72
2022/06/28 12:14:05;;;;;;;8.73;1.45;;;26.90;51.50;;;;;;4956995;28;20061;-72
2022/06/28 12:16:47;;;;;;;7.60;1.40;;;27.10;48.50;;;;;;4918132;28;206888;-71
2022/06/28 12:19:21;;;;;;;9.88;1.40;;;27.30;49.80;;;;;;4946442;28;253720;-70
2022/06/28 12:22:07;;;;;;;5.93;1.20;;;26.90;49.90;;;;;;4942118;28;206663;-70
2022/06/28 12:24:39;;;;;;;6.97;1.25;;;26.70;48.90;;;;;;4950772;28;273199;-70
2022/06/28 12:27:05;;;;;;;7.93;1.50;;;27.00;49.20;;;;;;4931765;28;212432;-71
2022/06/28 12:29:32;;;;;;;7.82;1.33;;;26.90;48.80;;;;;;4948852;28;256137;-71
2022/06/28 12:31:59;;;;;;;8.38;1.27;;;27.10;48.60;;;;;;4952489;28;206423;-71
2022/06/28 12:34:25;;;;;;;7.60;1.40;;;27.40;49.50;;;;;;4951932;28;259181;-71
2022/06/28 12:36:52;;;;;;;9.48;1.20;;;27.90;50.30;;;;;;4932263;28;209503;-71
2022/06/28 12:39:19;;;;;;;7.18;1.25;;;28.30;49.60;;;;;;4948915;28;258280;-71
2022/06/28 12:41:46;;;;;;;6.63;1.20;;;28.70;47.30;;;;;;4935710;28;174259;-71
2022/06/28 12:44:12;;;;;;;7.65;1.20;;;28.80;49.20;;;;;;4943611;28;265996;-71
2022/06/28 12:46:38;;;;;;;7.20;1.38;;;28.90;49.50;;;;;;4956420;28;155739;-71
2022/06/28 12:49:04;;;;;;;6.25;1.10;;;29.20;46.20;;;;;;4966953;28;20404;-70
2022/06/28 12:51:30;;;;;;;7.50;1.20;;;29.20;46.60;;;;;;4924938;28;213003;-71